createdAt,value
2022-11-10T00:00:57.788Z,100248.28
2022-11-10T00:03:44.471Z,100244.06
2022-11-10T00:06:30.998Z,100238.44
2022-11-10T00:09:18.057Z,100247.50
2022-11-10T00:12:04.471Z,100248.56
2022-11-10T00:15:09.862Z,100244.13
2022-11-10T00:17:56.372Z,100249.09
2022-11-10T00:20:42.906Z,100251.13
2022-11-10T00:23:29.448Z,100247.59
2022-11-10T00:26:18.943Z,100255.66
2022-11-10T00:29:05.380Z,100255.66
2022-11-10T00:31:52.316Z,100260.00
2022-11-10T00:34:38.657Z,100263.53
2022-11-10T00:37:25.146Z,100261.22
2022-11-10T00:40:12.101Z,100252.34
2022-11-10T00:42:58.779Z,100257.66
2022-11-10T00:45:47.133Z,100264.75
2022-11-10T00:48:33.865Z,100252.03
2022-11-10T00:51:26.896Z,100263.53
2022-11-10T00:54:13.501Z,100259.69
2022-11-10T00:57:00.326Z,100264.22
2022-11-10T00:59:47.224Z,100262.41
2022-11-10T01:02:34.127Z,100263.50
2022-11-10T01:05:21.151Z,100263.63
2022-11-10T01:08:07.910Z,100248.44
2022-11-10T01:11:02.867Z,100251.03
2022-11-10T01:13:51.085Z,100248.44
2022-11-10T01:16:37.891Z,100251.16
2022-11-10T01:19:24.318Z,100245.56
2022-11-10T01:22:11.050Z,100258.44
2022-11-10T01:24:57.579Z,100255.56
2022-11-10T01:27:44.085Z,100258.47
2022-11-10T01:30:30.548Z,100259.56
2022-11-10T01:33:17.872Z,100247.13
2022-11-10T01:36:05.582Z,100247.94
2022-11-10T01:38:52.423Z,100250.31
2022-11-10T01:41:38.867Z,100261.84
2022-11-10T01:44:26.113Z,100258.28
2022-11-10T01:47:12.391Z,100254.56
2022-11-10T01:49:59.325Z,100253.63
2022-11-10T01:52:49.099Z,100257.19
2022-11-10T01:55:39.286Z,100257.31
2022-11-10T01:58:32.598Z,100249.50
2022-11-10T02:01:19.125Z,100261.03
2022-11-10T02:04:10.694Z,100261.84
2022-11-10T02:06:57.993Z,100264.31
2022-11-10T02:09:45.170Z,100254.47
2022-11-10T02:12:38.543Z,100255.69
2022-11-10T02:15:24.878Z,100257.28
2022-11-10T02:18:11.885Z,100258.25
2022-11-10T02:20:58.649Z,100257.41
2022-11-10T02:23:49.145Z,100258.25
2022-11-10T02:26:42.254Z,100263.00
2022-11-10T02:29:28.969Z,100264.25
2022-11-10T02:32:15.545Z,100257.13
2022-11-10T02:35:01.997Z,100271.25
2022-11-10T02:37:48.724Z,100278.19
2022-11-10T02:40:35.551Z,100274.66
2022-11-10T02:43:22.560Z,100269.41
2022-11-10T02:46:09.671Z,100270.41
2022-11-10T02:48:56.243Z,100287.41
2022-11-10T02:51:42.896Z,100285.69
2022-11-10T02:54:29.435Z,100289.50
2022-11-10T02:57:16.425Z,100286.75
2022-11-10T03:00:04.790Z,100295.75
2022-11-10T03:02:59.477Z,100284.66
2022-11-10T03:05:45.940Z,100292.69
2022-11-10T03:08:32.947Z,100292.94
2022-11-10T03:11:19.364Z,100296.00
2022-11-10T03:14:05.855Z,100306.62
2022-11-10T03:16:52.869Z,100306.75
2022-11-10T03:19:39.849Z,100309.00
2022-11-10T03:22:26.230Z,100304.34
2022-11-10T03:25:12.858Z,100313.81
2022-11-10T03:27:59.427Z,100308.72
2022-11-10T03:30:46.277Z,100310.12
2022-11-10T03:33:32.944Z,100320.25
2022-11-10T03:36:19.885Z,100308.09
2022-11-10T03:39:06.891Z,100315.53
2022-11-10T03:41:53.767Z,100312.41
2022-11-10T03:44:40.401Z,100313.94
2022-11-10T03:47:27.233Z,100318.87
2022-11-10T03:50:14.344Z,100327.94
2022-11-10T03:53:00.987Z,100325.13
2022-11-10T03:55:47.760Z,100333.47
2022-11-10T03:58:34.939Z,100337.34
2022-11-10T04:01:21.547Z,100342.97
2022-11-10T04:04:31.256Z,100358.09
2022-11-10T04:07:36.675Z,100334.81
2022-11-10T04:10:31.749Z,100345.78
2022-11-10T04:13:37.208Z,100337.03
2022-11-10T04:16:24.173Z,100344.97
2022-11-10T04:19:10.559Z,100355.09
2022-11-10T04:21:57.264Z,100354.28
2022-11-10T04:24:43.651Z,100344.81
2022-11-10T04:27:30.925Z,100356.16
2022-11-10T04:30:17.561Z,100361.25
2022-11-10T04:33:11.961Z,100359.47
2022-11-10T04:35:58.323Z,100361.09
2022-11-10T04:38:45.406Z,100361.28
2022-11-10T04:41:32.833Z,100363.41
2022-11-10T04:44:19.355Z,100351.22
2022-11-10T04:47:11.528Z,100368.78
2022-11-10T04:49:58.730Z,100360.53
2022-11-10T04:52:45.493Z,100361.34
2022-11-10T04:55:32.176Z,100366.69
2022-11-10T04:58:18.892Z,100372.97
2022-11-10T05:01:05.629Z,100375.19
2022-11-10T05:03:53.198Z,100377.94
2022-11-10T05:06:40.490Z,100379.56
2022-11-10T05:09:27.319Z,100391.88
2022-11-10T05:12:17.347Z,100392.31
2022-11-10T05:15:07.305Z,100396.69
2022-11-10T05:17:54.792Z,100401.06
2022-11-10T05:20:41.135Z,100396.00
2022-11-10T05:23:40.571Z,100396.13
2022-11-10T05:26:26.840Z,100392.44
2022-11-10T05:29:13.288Z,100394.06
2022-11-10T05:31:59.548Z,100404.47
2022-11-10T05:34:46.096Z,100411.34
2022-11-10T05:37:32.708Z,100417.75
2022-11-10T05:40:19.537Z,100415.94
2022-11-10T05:43:06.543Z,100420.34
2022-11-10T05:45:53.537Z,100418.56
2022-11-10T05:48:40.239Z,100433.47
2022-11-10T05:51:26.760Z,100430.75
2022-11-10T05:54:13.518Z,100430.88
2022-11-10T05:57:00.363Z,100430.75
2022-11-10T05:59:46.778Z,100433.34
2022-11-10T06:02:34.474Z,100449.19
2022-11-10T06:05:20.853Z,100453.47
2022-11-10T06:08:07.754Z,100455.09
2022-11-10T06:10:54.675Z,100455.81
2022-11-10T06:13:41.378Z,100463.00
2022-11-10T06:16:28.166Z,100478.47
2022-11-10T06:19:14.519Z,100472.22
2022-11-10T06:22:06.388Z,100492.88
2022-11-10T06:24:54.217Z,100490.16
2022-11-10T06:27:44.562Z,100500.34
2022-11-10T06:30:33.541Z,100489.22
2022-11-10T06:33:20.449Z,100496.53
2022-11-10T06:36:07.449Z,100505.28
2022-11-10T06:38:54.212Z,100500.16
2022-11-10T06:41:40.626Z,100511.63
2022-11-10T06:44:27.508Z,100517.75
2022-11-10T06:47:17.914Z,100511.37
2022-11-10T06:50:04.687Z,100520.81
2022-11-10T06:52:55.153Z,100530.41
2022-11-10T06:55:41.845Z,100531.09
2022-11-10T06:58:28.303Z,100529.22
2022-11-10T07:01:17.641Z,100535.34
2022-11-10T07:04:19.552Z,100542.91
2022-11-10T07:07:09.339Z,100552.13
2022-11-10T07:09:56.024Z,100552.94
2022-11-10T07:12:42.434Z,100548.44
2022-11-10T07:15:29.574Z,100556.97
2022-11-10T07:18:16.238Z,100553.91
2022-11-10T07:21:06.905Z,100552.44
2022-11-10T07:23:53.599Z,100561.66
2022-11-10T07:26:40.317Z,100562.72
2022-11-10T07:29:27.387Z,100561.50
2022-11-10T07:32:13.760Z,100563.88
2022-11-10T07:35:00.250Z,100567.31
2022-11-10T07:37:46.941Z,100571.78
2022-11-10T07:40:34.077Z,100577.00
2022-11-10T07:43:22.355Z,100582.09
2022-11-10T07:46:09.771Z,100588.44
2022-11-10T07:48:56.372Z,100593.13
2022-11-10T07:51:43.527Z,100594.66
2022-11-10T07:54:30.270Z,100587.44
2022-11-10T07:57:16.647Z,100594.03
2022-11-10T08:00:04.334Z,100601.41
2022-11-10T08:02:51.271Z,100599.75
2022-11-10T08:05:37.907Z,100602.34
2022-11-10T08:08:24.631Z,100612.28
2022-11-10T08:11:11.074Z,100610.09
2022-11-10T08:13:57.371Z,100611.69
2022-11-10T08:16:44.188Z,100610.25
2022-11-10T08:19:31.263Z,100610.91
2022-11-10T08:22:17.761Z,100613.66
2022-11-10T08:25:04.498Z,100607.59
2022-11-10T08:27:57.397Z,100610.06
2022-11-10T08:30:45.946Z,100612.03
2022-11-10T08:33:32.582Z,100624.97
2022-11-10T08:36:19.517Z,100632.38
2022-11-10T08:39:06.566Z,100640.94
2022-11-10T08:41:53.018Z,100635.47
2022-11-10T08:44:39.335Z,100643.72
2022-11-10T08:47:25.765Z,100648.19
2022-11-10T08:50:12.599Z,100656.44
2022-11-10T08:53:07.086Z,100657.44
2022-11-10T08:55:54.161Z,100659.72
2022-11-10T08:58:50.233Z,100657.78
2022-11-10T09:01:39.945Z,100658.78
2022-11-10T09:04:26.695Z,100667.72
2022-11-10T09:07:13.512Z,100673.38
2022-11-10T09:10:08.127Z,100684.22
2022-11-10T09:12:55.105Z,100682.59
2022-11-10T09:15:43.632Z,100697.03
2022-11-10T09:18:30.742Z,100700.97
2022-11-10T09:21:18.094Z,100695.59
2022-11-10T09:24:04.933Z,100699.56
2022-11-10T09:26:51.696Z,100703.41
2022-11-10T09:29:38.415Z,100695.06
2022-11-10T09:32:24.918Z,100685.59
2022-11-10T09:35:11.250Z,100687.13
2022-11-10T09:37:57.931Z,100693.47
2022-11-10T09:41:12.423Z,100691.97
2022-11-10T09:44:05.918Z,100705.94
2022-11-10T09:47:01.477Z,100710.34
2022-11-10T09:49:59.128Z,100709.03
2022-11-10T09:52:48.015Z,100713.62
2022-11-10T09:55:46.877Z,100721.28
2022-11-10T09:58:45.282Z,100718.25
2022-11-10T10:01:59.439Z,100728.47
2022-11-10T10:05:17.144Z,100723.62
2022-11-10T10:08:11.683Z,100721.34
2022-11-10T10:11:08.276Z,100716.09
2022-11-10T10:14:03.376Z,100723.94
2022-11-10T10:16:52.762Z,100719.06
2022-11-10T10:19:52.460Z,100718.28
2022-11-10T10:22:56.100Z,100724.41
2022-11-10T10:25:45.815Z,100726.44
2022-11-10T10:28:38.120Z,100730.88
2022-11-10T10:31:30.180Z,100727.38
2022-11-10T10:34:23.613Z,100732.59
2022-11-10T10:37:39.709Z,100728.94
2022-11-10T10:40:26.537Z,100732.34
2022-11-10T10:43:13.255Z,100744.16
2022-11-10T10:46:08.501Z,100742.25
2022-11-10T10:49:29.483Z,100737.28
2022-11-10T10:52:20.540Z,100739.31
2022-11-10T10:55:08.450Z,100744.22
2022-11-10T10:58:27.262Z,100745.09
2022-11-10T11:01:16.994Z,100741.09
2022-11-10T11:04:35.740Z,100750.47
2022-11-10T11:07:24.685Z,100748.56
2022-11-10T11:10:26.234Z,100749.88
2022-11-10T11:13:14.773Z,100747.12
2022-11-10T11:16:04.530Z,100759.50
2022-11-10T11:18:51.609Z,100761.91
2022-11-10T11:21:58.438Z,100758.78
2022-11-10T11:25:26.432Z,100763.00
2022-11-10T11:28:25.390Z,100772.78
2022-11-10T11:31:21.723Z,100784.12
2022-11-10T11:34:29.963Z,100779.56
2022-11-10T11:37:27.059Z,100788.47
2022-11-10T11:40:19.258Z,100788.59
2022-11-10T11:43:33.596Z,100792.47
2022-11-10T11:46:49.693Z,100791.94
2022-11-10T11:50:13.698Z,100798.09
2022-11-10T11:53:24.129Z,100801.62
2022-11-10T11:56:30.687Z,100801.00
2022-11-10T11:59:38.628Z,100794.25
2022-11-10T12:02:44.173Z,100805.19
2022-11-10T12:05:51.706Z,100808.94
2022-11-10T12:08:52.756Z,100819.22
2022-11-10T12:12:15.462Z,100827.06
2022-11-10T12:15:09.049Z,100827.37
2022-11-10T12:18:13.949Z,100812.44
2022-11-10T12:21:22.615Z,100816.56
2022-11-10T12:24:17.920Z,100810.78
2022-11-10T12:27:16.419Z,100808.16
2022-11-10T12:30:09.117Z,100827.22
2022-11-10T12:33:04.496Z,100842.59
2022-11-10T12:35:54.000Z,100831.03
2022-11-10T12:38:49.748Z,100826.06
2022-11-10T12:42:15.019Z,100838.59
2022-11-10T12:45:19.084Z,100831.72
2022-11-10T12:48:06.545Z,100836.13
2022-11-10T12:51:02.053Z,100830.66
2022-11-10T12:53:49.545Z,100842.22
2022-11-10T12:57:06.118Z,100848.97
2022-11-10T13:00:06.021Z,100845.00
2022-11-10T13:02:55.448Z,100830.97
2022-11-10T13:05:45.477Z,100835.66
2022-11-10T13:08:41.158Z,100841.94
2022-11-10T13:11:30.463Z,100842.94
2022-11-10T13:14:24.085Z,100846.63
2022-11-10T13:17:32.038Z,100848.25
2022-11-10T13:21:07.403Z,100851.56
2022-11-10T13:23:56.823Z,100848.97
2022-11-10T13:26:43.005Z,100853.34
2022-11-10T13:29:48.160Z,100853.31
2022-11-10T13:32:36.418Z,100847.28
2022-11-10T13:35:37.441Z,100855.84
2022-11-10T13:38:36.378Z,100856.06
2022-11-10T13:41:26.048Z,100858.00
2022-11-10T13:44:26.298Z,100866.91
2022-11-10T13:47:40.097Z,100862.25
2022-11-10T13:51:12.997Z,100864.41
2022-11-10T13:54:24.054Z,100864.28
2022-11-10T13:57:11.721Z,100873.72
2022-11-10T14:00:01.113Z,100866.34
2022-11-10T14:03:01.409Z,100886.94
2022-11-10T14:05:56.782Z,100885.81
2022-11-10T14:08:54.246Z,100894.19
2022-11-10T14:11:50.121Z,100896.22
2022-11-10T14:15:03.208Z,100890.56
2022-11-10T14:17:51.643Z,100890.91
2022-11-10T14:20:41.749Z,100898.88
2022-11-10T14:23:46.254Z,100897.25
2022-11-10T14:26:47.942Z,100893.66
2022-11-10T14:29:39.237Z,100906.25
2022-11-10T14:32:26.604Z,100907.91
2022-11-10T14:35:26.571Z,100911.56
2022-11-10T14:38:25.254Z,100901.16
2022-11-10T14:41:21.109Z,100905.88
2022-11-10T14:44:11.306Z,100904.34
2022-11-10T14:47:22.951Z,100915.84
2022-11-10T14:50:15.569Z,100922.84
2022-11-10T14:53:20.420Z,100917.25
2022-11-10T14:56:15.811Z,100928.06
2022-11-10T14:59:05.778Z,100921.19
2022-11-10T15:01:58.289Z,100913.50
2022-11-10T15:04:47.560Z,100937.78
2022-11-10T15:07:33.982Z,100940.50
2022-11-10T15:10:27.254Z,100932.13
2022-11-10T15:13:13.337Z,100937.56
2022-11-10T15:16:25.681Z,100945.59
2022-11-10T15:19:29.223Z,100955.81
2022-11-10T15:22:18.335Z,100943.75
2022-11-10T15:25:15.147Z,100955.94
2022-11-10T15:28:13.670Z,100960.34
2022-11-10T15:31:06.773Z,100960.59
2022-11-10T15:34:00.580Z,100962.34
2022-11-10T15:36:47.826Z,100966.88
2022-11-10T15:39:34.573Z,100957.38
2022-11-10T15:42:23.865Z,100974.22
2022-11-10T15:45:11.808Z,100966.28
2022-11-10T15:47:58.924Z,100981.44
2022-11-10T15:50:50.751Z,100990.31
2022-11-10T15:53:39.214Z,100996.50
2022-11-10T15:56:25.743Z,100982.87
2022-11-10T15:59:12.395Z,100990.94
2022-11-10T16:01:59.337Z,101008.22
2022-11-10T16:04:46.936Z,101017.22
2022-11-10T16:07:33.442Z,101010.00
2022-11-10T16:10:20.507Z,101020.06
2022-11-10T16:13:13.331Z,101017.34
2022-11-10T16:16:00.433Z,101029.94
2022-11-10T16:18:47.114Z,101029.03
2022-11-10T16:21:33.792Z,101029.97
2022-11-10T16:24:20.548Z,101023.59
2022-11-10T16:27:11.408Z,101031.28
2022-11-10T16:29:59.095Z,101033.44
2022-11-10T16:32:46.044Z,101032.25
2022-11-10T16:35:32.406Z,101033.06
2022-11-10T16:38:21.231Z,101037.91
2022-11-10T16:41:13.922Z,101042.06
2022-11-10T16:44:00.487Z,101055.78
2022-11-10T16:46:52.683Z,101057.87
2022-11-10T16:49:44.963Z,101068.22
2022-11-10T16:52:32.159Z,101065.75
2022-11-10T16:55:19.180Z,101067.28
2022-11-10T16:58:06.250Z,101062.72
2022-11-10T17:00:56.959Z,101078.47
2022-11-10T17:03:46.693Z,101095.66
2022-11-10T17:06:33.503Z,101105.59
2022-11-10T17:09:23.447Z,101102.63
2022-11-10T17:12:13.316Z,101112.22
2022-11-10T17:15:00.198Z,101116.84
2022-11-10T17:17:53.871Z,101112.09
2022-11-10T17:20:45.449Z,101119.78
2022-11-10T17:23:35.236Z,101120.97
2022-11-10T17:26:21.993Z,101121.09
2022-11-10T17:29:17.194Z,101127.00
2022-11-10T17:32:04.203Z,101133.22
2022-11-10T17:34:51.052Z,101135.84
2022-11-10T17:37:38.493Z,101146.00
2022-11-10T17:40:29.332Z,101153.31
2022-11-10T17:43:16.830Z,101143.34
2022-11-10T17:46:03.842Z,101159.41
2022-11-10T17:48:50.687Z,101163.56
2022-11-10T17:51:37.820Z,101165.66
2022-11-10T17:54:27.096Z,101168.13
2022-11-10T17:57:13.676Z,101170.50
2022-11-10T18:00:00.234Z,101170.94
2022-11-10T18:02:52.531Z,101172.59
2022-11-10T18:05:41.931Z,101183.91
2022-11-10T18:08:28.335Z,101184.59
2022-11-10T18:11:18.868Z,101172.63
2022-11-10T18:14:05.464Z,101173.22
2022-11-10T18:16:52.800Z,101171.31
2022-11-10T18:19:39.999Z,101171.66
2022-11-10T18:22:26.932Z,101181.94
2022-11-10T18:25:13.460Z,101194.13
2022-11-10T18:28:00.317Z,101203.09
2022-11-10T18:30:46.771Z,101215.38
2022-11-10T18:33:33.950Z,101214.31
2022-11-10T18:36:20.708Z,101221.59
2022-11-10T18:39:07.496Z,101226.41
2022-11-10T18:41:54.449Z,101236.44
2022-11-10T18:44:41.395Z,101230.56
2022-11-10T18:47:27.676Z,101230.78
2022-11-10T18:50:14.289Z,101246.41
2022-11-10T18:53:03.507Z,101237.97
2022-11-10T18:55:56.915Z,101252.22
2022-11-10T18:58:43.798Z,101252.44
2022-11-10T19:01:31.136Z,101258.78
2022-11-10T19:04:17.613Z,101267.63
2022-11-10T19:07:04.760Z,101273.69
2022-11-10T19:09:51.987Z,101266.19
2022-11-10T19:12:38.929Z,101274.41
2022-11-10T19:15:25.871Z,101269.84
2022-11-10T19:18:12.437Z,101259.12
2022-11-10T19:21:04.481Z,101263.69
2022-11-10T19:23:56.051Z,101265.06
2022-11-10T19:26:42.483Z,101277.63
2022-11-10T19:29:30.251Z,101275.97
2022-11-10T19:32:22.117Z,101273.25
2022-11-10T19:35:13.532Z,101277.75
2022-11-10T19:38:00.379Z,101288.22
2022-11-10T19:40:47.815Z,101287.31
2022-11-10T19:43:34.987Z,101285.22
2022-11-10T19:46:23.997Z,101287.84
2022-11-10T19:49:10.839Z,101292.81
2022-11-10T19:51:57.864Z,101291.47
2022-11-10T19:54:44.839Z,101293.31
2022-11-10T19:57:31.676Z,101288.38
2022-11-10T20:00:18.709Z,101302.97
2022-11-10T20:03:11.606Z,101295.91
2022-11-10T20:06:00.882Z,101293.78
2022-11-10T20:08:49.360Z,101299.00
2022-11-10T20:11:36.357Z,101298.09
2022-11-10T20:14:23.554Z,101301.22
2022-11-10T20:17:10.613Z,101307.34
2022-11-10T20:19:57.767Z,101311.94
2022-11-10T20:22:44.576Z,101313.19
2022-11-10T20:25:32.500Z,101312.06
2022-11-10T20:28:19.695Z,101310.91
2022-11-10T20:31:16.612Z,101325.56
2022-11-10T20:34:03.478Z,101329.84
2022-11-10T20:36:50.012Z,101330.56
2022-11-10T20:39:37.322Z,101335.19
2022-11-10T20:42:23.979Z,101342.91
2022-11-10T20:45:11.583Z,101339.69
2022-11-10T20:47:58.940Z,101336.72
2022-11-10T20:50:47.034Z,101344.53
2022-11-10T20:53:33.373Z,101341.81
2022-11-10T20:56:19.897Z,101348.13
2022-11-10T20:59:07.025Z,101352.28
2022-11-10T21:01:54.877Z,101354.91
2022-11-10T21:04:43.224Z,101356.03
2022-11-10T21:07:29.816Z,101351.56
2022-11-10T21:10:16.779Z,101338.06
2022-11-10T21:13:03.079Z,101349.59
2022-11-10T21:15:51.857Z,101341.19
2022-11-10T21:18:38.509Z,101344.81
2022-11-10T21:21:28.001Z,101336.16
2022-11-10T21:24:14.971Z,101342.50
2022-11-10T21:27:01.335Z,101339.69
2022-11-10T21:29:47.855Z,101330.03
2022-11-10T21:32:34.836Z,101333.97
2022-11-10T21:35:21.542Z,101324.34
2022-11-10T21:38:13.386Z,101339.19
2022-11-10T21:41:00.883Z,101340.09
2022-11-10T21:43:47.589Z,101337.38
2022-11-10T21:46:34.360Z,101341.56
2022-11-10T21:49:20.790Z,101336.81
2022-11-10T21:52:07.285Z,101332.94
2022-11-10T21:54:54.019Z,101334.44
2022-11-10T21:57:40.612Z,101340.59
2022-11-10T22:00:27.780Z,101347.50
2022-11-10T22:03:14.581Z,101361.56
2022-11-10T22:06:15.664Z,101363.69
2022-11-10T22:09:02.263Z,101382.34
2022-11-10T22:12:07.517Z,101381.94
2022-11-10T22:15:12.477Z,101385.81
2022-11-10T22:18:18.505Z,101380.72
2022-11-10T22:21:06.632Z,101388.75
2022-11-10T22:24:12.084Z,101379.97
2022-11-10T22:27:01.015Z,101390.59
2022-11-10T22:29:48.179Z,101392.78
2022-11-10T22:32:34.610Z,101395.19
2022-11-10T22:35:39.995Z,101391.44
2022-11-10T22:38:27.039Z,101386.66
2022-11-10T22:41:33.928Z,101380.59
2022-11-10T22:44:24.868Z,101385.00
2022-11-10T22:47:11.915Z,101386.75
2022-11-10T22:50:00.589Z,101390.28
2022-11-10T22:52:47.045Z,101397.41
2022-11-10T22:55:33.905Z,101407.03
2022-11-10T22:58:20.242Z,101405.69
2022-11-10T23:01:08.774Z,101394.28
2022-11-10T23:03:59.530Z,101381.63
2022-11-10T23:06:48.696Z,101389.84
2022-11-10T23:09:37.125Z,101377.75
2022-11-10T23:12:23.885Z,101391.12
2022-11-10T23:15:10.639Z,101393.22
2022-11-10T23:17:59.984Z,101393.88
2022-11-10T23:20:56.443Z,101388.31
2022-11-10T23:23:43.590Z,101395.06
2022-11-10T23:26:30.423Z,101391.62
2022-11-10T23:29:17.170Z,101393.47
2022-11-10T23:32:03.999Z,101397.44
2022-11-10T23:34:50.503Z,101399.03
2022-11-10T23:37:36.790Z,101382.34
2022-11-10T23:40:22.994Z,101389.91
2022-11-10T23:43:09.402Z,101380.50
2022-11-10T23:46:11.608Z,101379.00
2022-11-10T23:48:58.258Z,101380.09
2022-11-10T23:51:44.866Z,101391.66
2022-11-10T23:54:31.391Z,101394.75
2022-11-10T23:57:18.300Z,101389.34
